Time;durP1;ratioP1;P1;durP2;ratioP2;P2;SDS_P1;SDS_P2;PMS_P1;PMS_P2;Temp;Humidity;BMP_temperature;BMP_pressure;BME280_temperature;BME280_humidity;BME280_pressure;Samples;Min_cycle;Max_cycle;Signal;HPM_P1;HPM_P2
2021/05/14 00:03:54;;;;;;;3.42;2.10;;;;;;;;;;10278876;28;20044;-59
2021/05/14 00:08:52;;;;;;;4.60;2.00;;;;;;;;;;10294882;28;20100;-60
2021/05/14 00:13:53;;;;;;;4.43;2.00;;;;;;;;;;10279317;28;20056;-60
2021/05/14 00:18:52;;;;;;;2.85;2.08;;;;;;;;;;10279251;28;20041;-59
2021/05/14 00:23:49;;;;;;;2.55;2.00;;;;;;;;;;10279525;28;20079;-59
2021/05/14 00:28:47;;;;;;;5.00;2.33;;;;;;;;;;10291797;28;20513;-59
2021/05/14 00:33:45;;;;;;;3.25;2.42;;;;;;;;;;10293551;28;20075;-59
2021/05/14 00:38:44;;;;;;;4.13;1.90;;;;;;;;;;10278490;28;20037;-59
2021/05/14 00:43:42;;;;;;;2.90;1.95;;;;;;;;;;10278039;28;20072;-60
2021/05/14 00:48:40;;;;;;;6.35;2.38;;;;;;;;;;10297193;28;20103;-59
2021/05/14 00:53:38;;;;;;;4.75;2.53;;;;;;;;;;10279748;28;20081;-59
2021/05/14 00:58:37;;;;;;;2.53;2.33;;;;;;;;;;10277580;28;20048;-59
2021/05/14 01:03:35;;;;;;;2.92;2.25;;;;;;;;;;10277412;28;20079;-59
2021/05/14 01:08:33;;;;;;;2.72;2.30;;;;;;;;;;10277183;28;20117;-59
2021/05/14 01:13:31;;;;;;;8.35;2.17;;;;;;;;;;10276893;28;20064;-59
2021/05/14 01:18:29;;;;;;;2.90;2.33;;;;;;;;;;10276732;28;20045;-59
2021/05/14 01:23:28;;;;;;;3.08;1.98;;;;;;;;;;10276636;28;20037;-59
2021/05/14 01:28:26;;;;;;;3.13;2.50;;;;;;;;;;10276383;28;20077;-59
2021/05/14 01:33:24;;;;;;;2.60;2.40;;;;;;;;;;10275872;28;20052;-58
2021/05/14 01:38:21;;;;;;;4.85;2.90;;;;;;;;;;10289753;28;20044;-59
2021/05/14 01:43:20;;;;;;;5.63;2.50;;;;;;;;;;10275819;28;20049;-59
2021/05/14 01:48:18;;;;;;;3.92;2.60;;;;;;;;;;10275936;28;20493;-60
2021/05/14 01:53:16;;;;;;;2.70;2.50;;;;;;;;;;10294388;28;20049;-59
2021/05/14 01:58:14;;;;;;;5.85;2.70;;;;;;;;;;10285262;28;20112;-59
2021/05/14 02:03:13;;;;;;;4.05;2.85;;;;;;;;;;10275834;28;20113;-58
2021/05/14 02:08:11;;;;;;;2.80;2.60;;;;;;;;;;10275738;28;20485;-59
2021/05/14 02:13:08;;;;;;;5.70;2.90;;;;;;;;;;10275582;28;20049;-59
2021/05/14 02:18:06;;;;;;;13.88;3.63;;;;;;;;;;10275485;28;20045;-59
2021/05/14 02:23:05;;;;;;;5.97;3.15;;;;;;;;;;10275652;28;20045;-59
2021/05/14 02:28:03;;;;;;;4.80;3.00;;;;;;;;;;10275074;28;20080;-59
2021/05/14 02:33:01;;;;;;;5.03;3.53;;;;;;;;;;10275066;28;20233;-59
2021/05/14 02:37:59;;;;;;;3.60;3.30;;;;;;;;;;10275143;28;20072;-59
2021/05/14 02:42:58;;;;;;;10.40;3.92;;;;;;;;;;10274943;28;20072;-59
2021/05/14 02:47:55;;;;;;;3.85;3.55;;;;;;;;;;10274869;28;20084;-59
2021/05/14 02:52:53;;;;;;;9.43;3.40;;;;;;;;;;10274994;28;20069;-59
2021/05/14 02:57:53;;;;;;;9.70;4.88;;;;;;;;;;10279768;28;20072;-59
2021/05/14 03:02:52;;;;;;;7.93;3.85;;;;;;;;;;10293317;28;20059;-59
2021/05/14 03:07:49;;;;;;;5.47;3.40;;;;;;;;;;10293636;28;20095;-59
2021/05/14 03:12:47;;;;;;;5.95;4.45;;;;;;;;;;10314075;28;20065;-60
2021/05/14 03:17:45;;;;;;;6.82;4.03;;;;;;;;;;10298025;28;20545;-60
2021/05/14 03:22:44;;;;;;;5.53;3.60;;;;;;;;;;10289647;28;20517;-60
2021/05/14 03:27:42;;;;;;;6.60;4.10;;;;;;;;;;10286371;28;20087;-60
2021/05/14 03:32:40;;;;;;;4.75;3.65;;;;;;;;;;10303642;28;20047;-60
2021/05/14 03:37:38;;;;;;;3.90;3.60;;;;;;;;;;10292832;28;20441;-61
2021/05/14 03:42:36;;;;;;;5.03;3.42;;;;;;;;;;10297870;28;20068;-59
2021/05/14 03:47:34;;;;;;;5.10;3.35;;;;;;;;;;10317796;28;20080;-60
2021/05/14 03:52:33;;;;;;;4.55;3.33;;;;;;;;;;10320313;28;20075;-59
2021/05/14 03:57:30;;;;;;;6.93;3.13;;;;;;;;;;10320330;28;20053;-59
2021/05/14 04:02:29;;;;;;;4.53;3.10;;;;;;;;;;10320230;28;20048;-59
2021/05/14 04:07:27;;;;;;;9.30;3.05;;;;;;;;;;10317630;28;20044;-59
2021/05/14 04:17:50;;;;;;;2.90;2.63;;;;;;;;;;10283851;28;20079;-58
2021/05/14 04:22:50;;;;;;;8.02;3.05;;;;;;;;;;10318445;28;20044;-59
2021/05/14 04:27:48;;;;;;;5.45;2.75;;;;;;;;;;10318641;28;20072;-59
2021/05/14 04:32:46;;;;;;;4.07;2.97;;;;;;;;;;10319360;28;20072;-59
2021/05/14 04:37:44;;;;;;;6.38;3.05;;;;;;;;;;10319066;28;20045;-59
2021/05/14 04:42:42;;;;;;;5.25;3.22;;;;;;;;;;10318724;28;20045;-59
2021/05/14 04:47:41;;;;;;;11.10;4.57;;;;;;;;;;10318799;28;20052;-58
2021/05/14 04:52:39;;;;;;;7.07;3.70;;;;;;;;;;10315712;28;20091;-60
2021/05/14 04:57:38;;;;;;;5.15;3.33;;;;;;;;;;10314444;28;20088;-59
2021/05/14 05:02:36;;;;;;;4.13;2.45;;;;;;;;;;10315559;28;20076;-59
2021/05/14 05:07:35;;;;;;;5.45;2.88;;;;;;;;;;10316757;28;20048;-59
2021/05/14 05:12:33;;;;;;;5.38;3.15;;;;;;;;;;10317354;28;20044;-59
2021/05/14 05:17:32;;;;;;;5.20;2.53;;;;;;;;;;10317495;28;20098;-59
2021/05/14 05:22:30;;;;;;;3.80;2.80;;;;;;;;;;10316832;28;20471;-59
2021/05/14 05:27:28;;;;;;;4.00;2.42;;;;;;;;;;10317006;28;20040;-60
2021/05/14 05:32:25;;;;;;;5.35;2.65;;;;;;;;;;10316919;28;20470;-60
2021/05/14 05:37:24;;;;;;;4.43;2.50;;;;;;;;;;10317122;28;20075;-60
2021/05/14 05:42:22;;;;;;;5.43;3.60;;;;;;;;;;10316542;28;20503;-59
2021/05/14 05:47:20;;;;;;;9.75;3.92;;;;;;;;;;10316725;28;20044;-59
2021/05/14 05:52:18;;;;;;;5.13;2.75;;;;;;;;;;10316399;28;20075;-59
2021/05/14 05:57:17;;;;;;;6.35;3.15;;;;;;;;;;10315839;28;20048;-59
2021/05/14 06:02:15;;;;;;;2.85;2.10;;;;;;;;;;10316424;28;20048;-59
2021/05/14 06:07:13;;;;;;;18.40;14.57;;;;;;;;;;10316241;28;20094;-58
2021/05/14 06:12:11;;;;;;;5.25;3.00;;;;;;;;;;10316038;28;20095;-58
2021/05/14 06:17:12;;;;;;;5.72;3.50;;;;;;;;;;10315995;28;20040;-58
2021/05/14 06:22:10;;;;;;;3.95;2.38;;;;;;;;;;10316301;28;20075;-58
2021/05/14 06:27:08;;;;;;;3.25;2.80;;;;;;;;;;10315447;28;20052;-58
2021/05/14 06:32:06;;;;;;;8.68;2.85;;;;;;;;;;10319937;28;20183;-58
2021/05/14 06:37:05;;;;;;;7.63;3.35;;;;;;;;;;10322409;28;20424;-57
2021/05/14 06:42:03;;;;;;;3.65;2.35;;;;;;;;;;10323203;28;20080;-58
2021/05/14 06:47:01;;;;;;;8.10;2.53;;;;;;;;;;10322905;28;20102;-58
2021/05/14 06:51:58;;;;;;;5.18;2.00;;;;;;;;;;10322669;28;20075;-58
2021/05/14 06:56:57;;;;;;;6.32;3.47;;;;;;;;;;10322483;28;20067;-58
2021/05/14 07:01:55;;;;;;;5.68;2.33;;;;;;;;;;10322484;28;20119;-58
2021/05/14 07:06:54;;;;;;;4.13;2.03;;;;;;;;;;10322017;28;20044;-58
2021/05/14 07:11:51;;;;;;;2.97;2.05;;;;;;;;;;10322420;28;20079;-58
2021/05/14 07:16:51;;;;;;;4.78;2.30;;;;;;;;;;10321628;28;20049;-58
2021/05/14 07:21:50;;;;;;;7.82;2.25;;;;;;;;;;10321511;28;20106;-58
2021/05/14 07:26:48;;;;;;;4.95;2.78;;;;;;;;;;10321242;28;20040;-58
2021/05/14 07:31:46;;;;;;;3.60;2.80;;;;;;;;;;10321142;28;20182;-57
2021/05/14 07:36:45;;;;;;;10.85;2.47;;;;;;;;;;10321242;28;20067;-58
2021/05/14 07:41:43;;;;;;;5.20;2.45;;;;;;;;;;10320539;28;20113;-58
2021/05/14 07:46:40;;;;;;;3.92;2.40;;;;;;;;;;10320382;28;20052;-58
2021/05/14 07:51:39;;;;;;;5.07;2.58;;;;;;;;;;10320394;28;20076;-58
2021/05/14 07:56:38;;;;;;;6.32;2.75;;;;;;;;;;10320383;28;20055;-58
2021/05/14 08:01:42;;;;;;;4.07;2.40;;;;;;;;;;10320249;28;20063;-58
2021/05/14 08:06:41;;;;;;;4.47;2.00;;;;;;;;;;10320030;28;20040;-58
2021/05/14 08:11:39;;;;;;;4.53;2.33;;;;;;;;;;10319539;28;20076;-59
2021/05/14 08:16:37;;;;;;;7.10;2.35;;;;;;;;;;10319201;28;20040;-58
2021/05/14 08:21:35;;;;;;;3.83;1.98;;;;;;;;;;10319429;28;20052;-58
2021/05/14 08:26:33;;;;;;;3.25;2.10;;;;;;;;;;10318725;28;20049;-58
2021/05/14 08:31:33;;;;;;;3.53;2.45;;;;;;;;;;10319216;28;20106;-58
2021/05/14 08:36:31;;;;;;;9.20;2.70;;;;;;;;;;10318483;28;20044;-58
2021/05/14 08:41:29;;;;;;;6.20;2.33;;;;;;;;;;10318190;28;20044;-58
2021/05/14 08:46:29;;;;;;;4.25;1.60;;;;;;;;;;10317828;28;20036;-58
2021/05/14 08:51:37;;;;;;;3.90;1.80;;;;;;;;;;10318496;28;20091;-58
2021/05/14 08:56:35;;;;;;;5.10;2.15;;;;;;;;;;10317139;28;20077;-58
2021/05/14 09:01:33;;;;;;;2.40;1.60;;;;;;;;;;10317850;28;20094;-58
2021/05/14 09:06:32;;;;;;;7.72;3.13;;;;;;;;;;10317764;28;20076;-58
2021/05/14 09:11:41;;;;;;;3.20;1.90;;;;;;;;;;10317143;28;20458;-58
2021/05/14 09:16:40;;;;;;;7.38;2.17;;;;;;;;;;10316908;28;20076;-59
2021/05/14 09:21:38;;;;;;;2.55;1.52;;;;;;;;;;10317539;28;20418;-60
2021/05/14 09:26:36;;;;;;;2.15;1.35;;;;;;;;;;10315477;28;20048;-58
2021/05/14 09:31:55;;;;;;;2.55;1.70;;;;;;;;;;10316705;28;20075;-58
2021/05/14 09:36:55;;;;;;;3.95;1.63;;;;;;;;;;10317189;28;20051;-58
2021/05/14 09:41:55;;;;;;;7.15;1.60;;;;;;;;;;10316671;28;20040;-58
2021/05/14 09:46:54;;;;;;;3.78;1.70;;;;;;;;;;10316684;28;20075;-58
2021/05/14 09:51:54;;;;;;;3.38;1.65;;;;;;;;;;10316565;28;20087;-58
2021/05/14 09:57:06;;;;;;;7.90;1.65;;;;;;;;;;10314941;28;20045;-58
2021/05/14 10:02:05;;;;;;;4.60;1.42;;;;;;;;;;10316431;28;20041;-59
2021/05/14 10:07:04;;;;;;;7.50;2.00;;;;;;;;;;10319545;28;20382;-59
2021/05/14 10:12:02;;;;;;;4.40;1.85;;;;;;;;;;10324352;28;20083;-59
2021/05/14 10:17:01;;;;;;;4.32;1.67;;;;;;;;;;10324204;28;20045;-59
2021/05/14 10:21:59;;;;;;;4.43;1.30;;;;;;;;;;10323825;28;20418;-57
2021/05/14 10:27:12;;;;;;;2.65;1.40;;;;;;;;;;10324152;28;20516;-59
2021/05/14 10:32:10;;;;;;;5.85;2.10;;;;;;;;;;10321985;28;20044;-58
2021/05/14 10:37:08;;;;;;;3.03;1.60;;;;;;;;;;10323715;28;20047;-59
2021/05/14 10:42:08;;;;;;;5.30;2.80;;;;;;;;;;10322864;28;20198;-59
2021/05/14 10:47:32;;;;;;;4.32;1.77;;;;;;;;;;10321248;28;20051;-58
2021/05/14 10:52:33;;;;;;;4.97;1.80;;;;;;;;;;10287553;28;20106;-58
2021/05/14 10:57:48;;;;;;;5.00;1.85;;;;;;;;;;10322242;28;20060;-57
2021/05/14 11:02:46;;;;;;;5.07;2.22;;;;;;;;;;10320473;28;20057;-57
2021/05/14 11:07:44;;;;;;;2.00;1.30;;;;;;;;;;10320284;28;20056;-58
2021/05/14 11:12:42;;;;;;;2.88;1.50;;;;;;;;;;10320228;28;20091;-57
2021/05/14 11:17:41;;;;;;;4.50;1.40;;;;;;;;;;10319368;28;20040;-57
2021/05/14 11:22:39;;;;;;;4.15;1.27;;;;;;;;;;10319134;28;20052;-58
2021/05/14 11:27:37;;;;;;;2.47;1.58;;;;;;;;;;10319729;28;20041;-58
2021/05/14 11:32:36;;;;;;;3.85;1.48;;;;;;;;;;10319304;28;20088;-57
2021/05/14 11:37:36;;;;;;;4.20;2.05;;;;;;;;;;10319436;28;20041;-58
2021/05/14 11:42:38;;;;;;;2.92;1.60;;;;;;;;;;10319302;28;20062;-56
2021/05/14 11:47:36;;;;;;;3.78;1.48;;;;;;;;;;10319461;28;20049;-58
2021/05/14 11:52:35;;;;;;;3.15;1.90;;;;;;;;;;10318518;28;20478;-58
2021/05/14 11:57:35;;;;;;;2.40;1.80;;;;;;;;;;10295567;28;634531;-58
2021/05/14 12:02:40;;;;;;;3.58;2.13;;;;;;;;;;10319920;28;20047;-57
2021/05/14 12:07:41;;;;;;;4.80;1.30;;;;;;;;;;10320603;28;20048;-59
2021/05/14 12:12:41;;;;;;;4.72;1.20;;;;;;;;;;10319977;28;20091;-57
2021/05/14 12:17:39;;;;;;;3.42;1.80;;;;;;;;;;10320051;28;20041;-59
2021/05/14 12:22:41;;;;;;;4.80;1.30;;;;;;;;;;10319616;28;20081;-58
2021/05/14 12:27:39;;;;;;;4.85;1.05;;;;;;;;;;10318501;28;20060;-58
2021/05/14 12:32:38;;;;;;;2.60;1.13;;;;;;;;;;10319006;28;20084;-60
2021/05/14 12:37:36;;;;;;;1.42;1.05;;;;;;;;;;10318563;28;20052;-60
2021/05/14 12:42:35;;;;;;;2.92;1.20;;;;;;;;;;10318777;28;20053;-61
2021/05/14 12:47:33;;;;;;;5.07;1.90;;;;;;;;;;10318544;28;20041;-61
2021/05/14 12:52:32;;;;;;;4.43;2.05;;;;;;;;;;10318387;28;20083;-60
2021/05/14 12:57:31;;;;;;;2.20;1.55;;;;;;;;;;10317826;28;20509;-61
2021/05/14 13:02:29;;;;;;;4.57;2.25;;;;;;;;;;10318050;28;20049;-60
2021/05/14 13:07:28;;;;;;;2.83;1.48;;;;;;;;;;10318177;28;20053;-61
2021/05/14 13:12:26;;;;;;;9.20;1.63;;;;;;;;;;10317446;28;20107;-61
2021/05/14 13:17:24;;;;;;;5.68;3.45;;;;;;;;;;10317291;28;20064;-60
2021/05/14 13:22:22;;;;;;;5.43;1.88;;;;;;;;;;10317346;28;20045;-61
2021/05/14 13:27:21;;;;;;;3.58;1.75;;;;;;;;;;10317840;28;20059;-61
2021/05/14 13:32:19;;;;;;;1.50;1.10;;;;;;;;;;10317440;28;20418;-61
2021/05/14 13:37:18;;;;;;;3.78;1.63;;;;;;;;;;10317456;28;20044;-62
2021/05/14 13:42:16;;;;;;;3.13;1.40;;;;;;;;;;10316752;28;20076;-61
2021/05/14 13:47:14;;;;;;;4.93;2.55;;;;;;;;;;10316846;28;20055;-61
2021/05/14 13:52:12;;;;;;;3.95;1.90;;;;;;;;;;10316530;28;20084;-60
2021/05/14 13:57:10;;;;;;;2.55;1.58;;;;;;;;;;10316803;28;20051;-61
2021/05/14 14:02:09;;;;;;;2.78;1.33;;;;;;;;;;10316843;28;20049;-61
2021/05/14 14:07:08;;;;;;;2.80;1.35;;;;;;;;;;10316155;28;20075;-61
2021/05/14 14:12:06;;;;;;;1.83;1.70;;;;;;;;;;10316116;28;20103;-61
2021/05/14 14:17:04;;;;;;;4.43;2.35;;;;;;;;;;10316625;28;20051;-59
2021/05/14 14:22:02;;;;;;;7.05;5.43;;;;;;;;;;10316232;28;20049;-58
2021/05/14 14:27:01;;;;;;;4.55;1.80;;;;;;;;;;10316403;28;20079;-59
2021/05/14 14:31:59;;;;;;;4.30;1.50;;;;;;;;;;10316165;28;20080;-59
2021/05/14 14:36:57;;;;;;;6.53;5.72;;;;;;;;;;10315835;28;20662;-61
2021/05/14 14:41:56;;;;;;;1.42;1.20;;;;;;;;;;10315633;28;20063;-59
2021/05/14 14:46:55;;;;;;;4.28;1.98;;;;;;;;;;10315605;28;20045;-59
2021/05/14 14:51:54;;;;;;;5.13;2.33;;;;;;;;;;10317333;28;20080;-59
2021/05/14 14:56:52;;;;;;;12.00;6.53;;;;;;;;;;10321431;28;20387;-59
2021/05/14 15:01:51;;;;;;;6.22;2.75;;;;;;;;;;10322846;28;20087;-59
2021/05/14 15:06:50;;;;;;;4.15;2.40;;;;;;;;;;10322724;28;20504;-59
2021/05/14 15:11:47;;;;;;;2.15;1.20;;;;;;;;;;10322459;28;20087;-60
2021/05/14 15:16:46;;;;;;;3.28;1.80;;;;;;;;;;10321762;28;20527;-59
2021/05/14 15:21:45;;;;;;;4.47;2.95;;;;;;;;;;10322172;28;20044;-60
2021/05/14 15:26:44;;;;;;;8.05;5.85;;;;;;;;;;10321615;28;20071;-60
2021/05/14 15:32:01;;;;;;;3.55;3.13;;;;;;;;;;10320164;28;20099;-59
2021/05/14 15:37:00;;;;;;;10.18;7.18;;;;;;;;;;10321589;28;20049;-59
2021/05/14 15:41:59;;;;;;;3.33;1.92;;;;;;;;;;10321078;28;20044;-59
2021/05/14 15:46:58;;;;;;;4.05;3.17;;;;;;;;;;10320697;28;20060;-59
2021/05/14 15:51:56;;;;;;;8.05;6.00;;;;;;;;;;10320706;28;20533;-59
2021/05/14 15:56:54;;;;;;;3.75;2.80;;;;;;;;;;10319705;28;20402;-59
2021/05/14 16:02:11;;;;;;;7.07;4.75;;;;;;;;;;10319975;28;20048;-59
2021/05/14 16:07:09;;;;;;;11.32;5.57;;;;;;;;;;10319570;28;20045;-59
2021/05/14 16:12:11;;;;;;;8.90;6.22;;;;;;;;;;10319306;28;20255;-60
2021/05/14 16:17:11;;;;;;;8.75;4.15;;;;;;;;;;10308664;28;20087;-59
2021/05/14 16:22:10;;;;;;;3.45;3.00;;;;;;;;;;10284712;28;20072;-59
2021/05/14 16:27:08;;;;;;;3.53;2.58;;;;;;;;;;10278801;28;20045;-60
2021/05/14 16:32:06;;;;;;;3.95;1.63;;;;;;;;;;10279686;28;20084;-60
2021/05/14 16:37:06;;;;;;;4.63;2.78;;;;;;;;;;10290537;28;20060;-59
2021/05/14 16:42:05;;;;;;;3.88;2.28;;;;;;;;;;10293150;28;20084;-59
2021/05/14 16:47:03;;;;;;;4.50;2.40;;;;;;;;;;10302660;28;20049;-59
2021/05/14 16:52:02;;;;;;;7.10;2.40;;;;;;;;;;10318271;28;20080;-60
2021/05/14 16:57:04;;;;;;;8.43;2.28;;;;;;;;;;10301853;28;20052;-59
2021/05/14 17:02:02;;;;;;;6.40;2.92;;;;;;;;;;10277388;28;20085;-59
2021/05/14 17:07:01;;;;;;;5.45;3.30;;;;;;;;;;10277784;28;20080;-60
2021/05/14 17:12:00;;;;;;;12.18;3.75;;;;;;;;;;10297499;28;20081;-60
2021/05/14 17:16:58;;;;;;;5.68;3.30;;;;;;;;;;10291238;28;20505;-59
2021/05/14 17:21:58;;;;;;;7.32;4.20;;;;;;;;;;10275172;28;20072;-59
2021/05/14 17:26:56;;;;;;;8.38;3.33;;;;;;;;;;10275833;28;20446;-58
2021/05/14 17:31:55;;;;;;;7.20;3.97;;;;;;;;;;10274783;28;20077;-58
2021/05/14 17:36:53;;;;;;;5.30;3.38;;;;;;;;;;10274731;28;20055;-59
2021/05/14 17:41:52;;;;;;;6.90;2.67;;;;;;;;;;10300271;28;20498;-59
2021/05/14 17:46:50;;;;;;;5.82;2.33;;;;;;;;;;10276486;28;20045;-60
2021/05/14 17:51:48;;;;;;;9.80;2.15;;;;;;;;;;10284013;28;20088;-58
2021/05/14 17:56:49;;;;;;;12.70;2.33;;;;;;;;;;10282694;28;20447;-59
2021/05/14 18:01:48;;;;;;;3.05;1.75;;;;;;;;;;10290259;28;20073;-60
2021/05/14 18:06:48;;;;;;;5.47;2.30;;;;;;;;;;10292595;28;20041;-62
2021/05/14 18:11:46;;;;;;;4.50;2.67;;;;;;;;;;10287576;28;20084;-59
2021/05/14 18:16:45;;;;;;;6.82;2.35;;;;;;;;;;10303029;28;20079;-58
2021/05/14 18:21:44;;;;;;;6.55;3.10;;;;;;;;;;10276110;28;20451;-59
2021/05/14 18:26:42;;;;;;;4.50;3.22;;;;;;;;;;10313831;28;20048;-60
2021/05/14 18:31:39;;;;;;;7.60;2.80;;;;;;;;;;10297752;28;20091;-60
2021/05/14 18:36:38;;;;;;;6.70;3.58;;;;;;;;;;10307362;28;20138;-60
2021/05/14 18:41:37;;;;;;;6.85;4.68;;;;;;;;;;10296955;28;20083;-58
2021/05/14 18:46:35;;;;;;;7.55;3.20;;;;;;;;;;10299427;28;20071;-60
2021/05/14 18:51:33;;;;;;;7.88;3.15;;;;;;;;;;10301587;28;20095;-58
2021/05/14 18:56:31;;;;;;;8.02;3.67;;;;;;;;;;10293720;28;20060;-60
2021/05/14 19:01:30;;;;;;;5.00;2.70;;;;;;;;;;10309667;28;20078;-61
2021/05/14 19:06:28;;;;;;;3.45;2.40;;;;;;;;;;10299274;28;20516;-59
2021/05/14 19:11:26;;;;;;;4.43;1.83;;;;;;;;;;10296603;28;20069;-59
2021/05/14 19:16:24;;;;;;;5.47;2.72;;;;;;;;;;10303763;28;20076;-58
2021/05/14 19:21:26;;;;;;;4.35;1.75;;;;;;;;;;10300246;28;20065;-59
2021/05/14 19:26:53;;;;;;;3.55;1.48;;;;;;;;;;10284415;28;20068;-60
2021/05/14 19:37:20;;;;;;;2.78;1.83;;;;;;;;;;10311410;28;20076;-61
2021/05/14 19:42:56;;;;;;;3.35;1.35;;;;;;;;;;10297738;28;20069;-61
2021/05/14 19:47:57;;;;;;;1.88;1.40;;;;;;;;;;10294030;28;20068;-61
2021/05/14 19:52:57;;;;;;;1.45;1.10;;;;;;;;;;10293297;28;20068;-62
2021/05/14 19:57:54;;;;;;;5.32;1.52;;;;;;;;;;10307213;28;20084;-62
2021/05/14 20:02:54;;;;;;;3.17;1.38;;;;;;;;;;10283066;28;20198;-62
2021/05/14 20:07:51;;;;;;;2.28;1.65;;;;;;;;;;10295666;28;20734;-62
2021/05/14 20:12:50;;;;;;;3.63;1.70;;;;;;;;;;10286612;28;20075;-63
2021/05/14 20:17:48;;;;;;;4.75;2.20;;;;;;;;;;10294798;28;20068;-63
2021/05/14 20:22:48;;;;;;;1.92;1.20;;;;;;;;;;10292209;28;20084;-62
2021/05/14 20:27:46;;;;;;;3.47;1.70;;;;;;;;;;10306427;28;20544;-62
2021/05/14 20:32:45;;;;;;;4.45;1.27;;;;;;;;;;10296648;28;20285;-63
2021/05/14 20:37:44;;;;;;;2.15;1.65;;;;;;;;;;10301150;28;20072;-63
2021/05/14 20:42:43;;;;;;;4.53;1.30;;;;;;;;;;10291505;28;20509;-63
2021/05/14 20:47:42;;;;;;;3.00;1.30;;;;;;;;;;10310284;28;20044;-63
2021/05/14 20:52:41;;;;;;;2.95;1.65;;;;;;;;;;10309025;28;21104;-62
2021/05/14 20:57:40;;;;;;;3.38;1.40;;;;;;;;;;10288442;28;20097;-63
2021/05/14 21:02:38;;;;;;;7.32;1.70;;;;;;;;;;10314599;28;20060;-62
2021/05/14 21:07:36;;;;;;;2.15;1.20;;;;;;;;;;10302493;28;20118;-62
2021/05/14 21:12:34;;;;;;;4.13;2.10;;;;;;;;;;10274024;28;20080;-63
2021/05/14 21:17:33;;;;;;;1.55;1.00;;;;;;;;;;10273641;28;20077;-63
2021/05/14 21:22:30;;;;;;;2.63;1.00;;;;;;;;;;10273249;28;20160;-62
2021/05/14 21:27:28;;;;;;;2.80;1.13;;;;;;;;;;10285148;28;20080;-62
2021/05/14 21:32:27;;;;;;;2.42;1.25;;;;;;;;;;10272941;28;20084;-63
2021/05/14 21:37:24;;;;;;;3.58;1.20;;;;;;;;;;10278965;28;20088;-62
2021/05/14 21:42:20;;;;;;;3.92;1.50;;;;;;;;;;10313500;28;20064;-63
2021/05/14 21:47:17;;;;;;;3.17;1.40;;;;;;;;;;10314862;28;20083;-63
2021/05/14 21:52:14;;;;;;;1.42;1.30;;;;;;;;;;10305782;28;20103;-62
2021/05/14 21:57:12;;;;;;;1.58;1.25;;;;;;;;;;10273617;28;20068;-62
2021/05/14 22:02:09;;;;;;;1.40;1.27;;;;;;;;;;10277729;28;20488;-63
2021/05/14 22:07:05;;;;;;;2.03;1.02;;;;;;;;;;10279473;28;20084;-62
2021/05/14 22:12:03;;;;;;;3.80;1.15;;;;;;;;;;10281332;28;20085;-63
2021/05/14 22:16:59;;;;;;;1.50;1.30;;;;;;;;;;10299246;28;20678;-62
2021/05/14 22:21:57;;;;;;;3.45;1.23;;;;;;;;;;10336539;28;20060;-62
2021/05/14 22:26:53;;;;;;;3.47;1.20;;;;;;;;;;10340420;28;20064;-62
2021/05/14 22:31:51;;;;;;;1.83;1.17;;;;;;;;;;10316678;28;20075;-62
2021/05/14 22:36:48;;;;;;;2.33;1.17;;;;;;;;;;10320258;28;20084;-63
2021/05/14 22:41:44;;;;;;;1.50;1.05;;;;;;;;;;10321599;28;20072;-62
2021/05/14 22:46:41;;;;;;;1.75;1.20;;;;;;;;;;10321559;28;20064;-62
2021/05/14 22:51:38;;;;;;;1.63;1.00;;;;;;;;;;10321781;28;20048;-63
2021/05/14 22:56:35;;;;;;;1.73;1.15;;;;;;;;;;10322162;28;20517;-62
2021/05/14 23:01:31;;;;;;;4.03;1.60;;;;;;;;;;10321463;28;20056;-62
2021/05/14 23:06:28;;;;;;;4.82;1.30;;;;;;;;;;10296520;28;20071;-63
2021/05/14 23:11:26;;;;;;;2.00;1.15;;;;;;;;;;10279233;28;20092;-62
2021/05/14 23:16:22;;;;;;;1.27;1.00;;;;;;;;;;10280154;28;20085;-63
2021/05/14 23:21:19;;;;;;;1.33;1.23;;;;;;;;;;10280375;28;20080;-63
2021/05/14 23:26:15;;;;;;;1.58;1.10;;;;;;;;;;10279802;28;20093;-62
2021/05/14 23:31:13;;;;;;;2.05;1.33;;;;;;;;;;10280346;28;20075;-62
2021/05/14 23:36:09;;;;;;;1.40;1.27;;;;;;;;;;10279744;28;20099;-62
2021/05/14 23:41:06;;;;;;;6.93;1.73;;;;;;;;;;10279042;28;20069;-62
2021/05/14 23:46:03;;;;;;;1.70;1.23;;;;;;;;;;10279397;28;20106;-63
2021/05/14 23:51:00;;;;;;;3.65;1.35;;;;;;;;;;10301137;28;20064;-63
2021/05/14 23:55:57;;;;;;;1.35;1.20;;;;;;;;;;10281044;28;20077;-62
